Time;durP1;ratioP1;P1;durP2;ratioP2;P2;SDS_P1;SDS_P2;PMS_P1;PMS_P2;Temp;Humidity;BMP_temperature;BMP_pressure;BME280_temperature;BME280_humidity;BME280_pressure;Samples;Min_cycle;Max_cycle;Signal;HPM_P1;HPM_P2
2021/12/07 00:00:19;;;;;;;49.33;23.38;;;;;;;-2.81;100.00;99387.78;4903154;29;20041;-81
2021/12/07 00:03:04;;;;;;;57.55;26.15;;;;;;;-2.88;100.00;99384.22;4904754;29;20053;-81
2021/12/07 00:05:48;;;;;;;48.40;23.67;;;;;;;-2.63;100.00;99418.09;4906505;29;20056;-81
2021/12/07 00:08:33;;;;;;;56.00;24.85;;;;;;;-2.79;100.00;99393.81;4907154;29;20048;-81
2021/12/07 00:11:17;;;;;;;57.70;26.33;;;;;;;-2.86;100.00;99381.66;4903197;29;20052;-81
2021/12/07 00:14:11;;;;;;;65.70;31.80;;;;;;;-2.74;100.00;99399.88;4903781;29;20052;-81
2021/12/07 00:16:56;;;;;;;66.50;31.60;;;;;;;-2.92;100.00;99390.09;4904089;29;20049;-81
2021/12/07 00:19:40;;;;;;;57.65;26.13;;;;;;;-2.65;100.00;99425.72;4903528;29;20081;-81
2021/12/07 00:22:25;;;;;;;61.50;27.92;;;;;;;-2.90;100.00;99408.06;4903083;29;20099;-81
2021/12/07 00:25:11;;;;;;;60.03;25.33;;;;;;;-2.88;100.00;99383.34;4902782;29;20044;-81
2021/12/07 00:27:55;;;;;;;56.20;26.45;;;;;;;-2.88;100.00;99379.09;4902988;29;20057;-81
2021/12/07 00:30:40;;;;;;;62.28;28.33;;;;;;;-2.79;100.00;99392.91;4902532;29;20171;-81
2021/12/07 00:36:10;;;;;;;58.28;26.23;;;;;;;-2.69;100.00;99400.00;4904233;29;20064;-82
2021/12/07 00:38:54;;;;;;;52.47;25.80;;;;;;;-2.89;100.00;99379.94;4902992;29;20094;-82
2021/12/07 00:41:39;;;;;;;56.05;26.63;;;;;;;-3.10;100.00;99353.81;4903090;29;20048;-82
2021/12/07 00:44:25;;;;;;;56.42;27.10;;;;;;;-2.76;100.00;99422.06;4890154;29;20102;-82
2021/12/07 00:47:11;;;;;;;53.10;24.85;;;;;;;-3.04;100.00;99382.13;4903431;29;20048;-82
2021/12/07 00:49:56;;;;;;;54.58;25.13;;;;;;;-2.99;100.00;99403.63;4904517;29;20100;-81
2021/12/07 00:52:40;;;;;;;49.13;25.52;;;;;;;-2.76;100.00;99414.38;4904842;29;20369;-81
2021/12/07 00:55:28;;;;;;;59.15;27.88;;;;;;;-2.84;100.00;99398.81;4904441;29;20044;-81
2021/12/07 00:58:20;;;;;;;59.80;28.27;;;;;;;-2.65;100.00;99418.03;4905379;29;20045;-81
2021/12/07 01:01:12;;;;;;;63.65;28.85;;;;;;;-3.02;100.00;99371.91;4904476;29;20057;-81
2021/12/07 01:03:58;;;;;;;58.00;25.95;;;;;;;-2.67;100.00;99437.63;4904357;29;20412;-81
2021/12/07 01:07:01;;;;;;;59.88;28.20;;;;;;;-2.76;100.00;99413.50;4905419;29;20052;-81
2021/12/07 01:25:01;;;;;;;58.70;29.85;;;;;;;-2.88;100.00;99402.16;4909453;29;20060;-82
2021/12/07 01:27:49;;;;;;;62.97;31.67;;;;;;;-3.19;100.00;99384.34;4896864;29;20053;-82
2021/12/07 01:30:41;;;;;;;57.10;29.02;;;;;;;-2.88;100.00;99438.03;4908889;29;20067;-82
2021/12/07 02:00:31;;;;;;;55.95;25.13;;;;;;;-3.48;100.00;99374.28;4908623;29;20054;-81
2021/12/07 02:03:15;;;;;;;46.40;24.42;;;;;;;-3.32;100.00;99384.06;4911362;29;20041;-81
2021/12/07 02:06:00;;;;;;;44.15;23.17;;;;;;;-3.03;100.00;99429.13;4914424;29;20044;-81
2021/12/07 02:08:44;;;;;;;47.42;24.52;;;;;;;-3.31;100.00;99395.19;4897942;29;20464;-81
2021/12/07 02:11:29;;;;;;;48.15;25.58;;;;;;;-3.34;100.00;99395.97;4908817;29;20111;-82
2021/12/07 02:14:17;;;;;;;44.13;24.20;;;;;;;-3.05;100.00;99423.97;4907554;29;20048;-82
2021/12/07 02:17:08;;;;;;;43.25;23.60;;;;;;;-3.24;100.00;99412.44;4908557;29;20055;-82
2021/12/07 02:19:55;;;;;;;46.90;24.23;;;;;;;-3.10;100.00;99407.63;4907352;29;20435;-82
2021/12/07 02:22:39;;;;;;;44.67;24.35;;;;;;;-3.23;100.00;99388.53;4911277;29;20062;-82
2021/12/07 02:25:25;;;;;;;50.00;25.25;;;;;;;-3.21;100.00;99380.91;4906710;29;20087;-82
2021/12/07 02:28:14;;;;;;;47.38;24.88;;;;;;;-3.35;100.00;99372.88;4907142;29;20047;-82
2021/12/07 02:31:00;;;;;;;49.58;25.13;;;;;;;-3.19;100.00;99395.44;4892312;29;20052;-81
2021/12/07 02:33:45;;;;;;;56.65;27.77;;;;;;;-3.12;100.00;99394.78;4905693;29;20060;-82
2021/12/07 02:36:30;;;;;;;55.20;27.80;;;;;;;-3.46;100.00;99377.75;4906124;29;20105;-82
2021/12/07 02:39:16;;;;;;;60.05;27.05;;;;;;;-3.53;100.00;99358.81;4906713;29;20056;-82
2021/12/07 02:42:03;;;;;;;67.35;33.22;;;;;;;-3.30;100.00;99402.91;4908670;29;20044;-82
2021/12/07 02:44:48;;;;;;;57.78;27.90;;;;;;;-3.23;100.00;99403.03;4906088;29;20426;-82
2021/12/07 02:47:35;;;;;;;64.18;30.27;;;;;;;-3.29;100.00;99416.56;4909992;29;20048;-82
2021/12/07 02:50:20;;;;;;;51.50;27.23;;;;;;;-3.49;100.00;99377.66;4907522;29;20052;-82
2021/12/07 02:53:05;;;;;;;54.33;29.08;;;;;;;-3.26;100.00;99395.28;4895652;29;20056;-82
2021/12/07 02:55:51;;;;;;;70.78;32.58;;;;;;;-3.45;100.00;99381.16;4908410;29;20139;-82
2021/12/07 02:58:41;;;;;;;63.15;29.25;;;;;;;-3.61;100.00;99357.75;4906079;29;20045;-82
2021/12/07 03:01:32;;;;;;;71.15;32.78;;;;;;;-3.44;100.00;99404.28;4905885;29;20128;-82
2021/12/07 03:04:23;;;;;;;60.80;28.88;;;;;;;-3.53;100.00;99363.06;4894326;29;20056;-82
2021/12/07 03:07:18;;;;;;;68.40;31.45;;;;;;;-3.54;100.00;99357.09;4906768;29;20060;-82
2021/12/07 03:28:20;;;;;;;48.30;25.35;;;;;;;-3.59;100.00;99371.47;4905721;29;20044;-82
2021/12/07 03:31:06;;;;;;;45.70;24.38;;;;;;;-3.36;100.00;99410.44;4892912;29;20076;-82
2021/12/07 03:33:55;;;;;;;47.22;25.38;;;;;;;-3.52;100.00;99383.56;4906511;29;20470;-82
2021/12/07 03:36:42;;;;;;;49.22;26.60;;;;;;;-3.33;100.00;99395.13;4906394;29;20057;-82
2021/12/07 03:39:27;;;;;;;51.67;27.98;;;;;;;-3.21;100.00;99411.63;4906200;29;20458;-82
2021/12/07 03:42:12;;;;;;;47.30;25.40;;;;;;;-3.40;100.00;99374.47;4908238;29;20059;-82
2021/12/07 03:44:57;;;;;;;42.92;23.65;;;;;;;-3.14;100.00;99405.81;4906554;29;20055;-82
2021/12/07 03:47:42;;;;;;;52.63;25.70;;;;;;;-3.34;100.00;99372.91;4906675;29;20409;-82
2021/12/07 03:50:27;;;;;;;45.70;25.10;;;;;;;-3.17;100.00;99401.50;4907587;29;20045;-82
2021/12/07 03:53:13;;;;;;;45.45;24.42;;;;;;;-3.19;100.00;99389.47;4906595;29;20105;-82
2021/12/07 03:56:00;;;;;;;43.15;22.67;;;;;;;-3.42;100.00;99360.75;4906546;29;20048;-82
2021/12/07 03:58:47;;;;;;;48.90;26.20;;;;;;;-3.21;100.00;99389.44;4894517;29;20045;-82
2021/12/07 04:01:31;;;;;;;42.92;23.15;;;;;;;-3.32;100.00;99370.38;4908840;29;20040;-82
2021/12/07 04:04:17;;;;;;;47.03;24.52;;;;;;;-3.55;100.00;99341.66;4912415;29;20040;-82
2021/12/07 04:07:04;;;;;;;46.22;24.90;;;;;;;-3.45;100.00;99333.38;4915497;29;20049;-82
2021/12/07 04:09:48;;;;;;;44.17;23.27;;;;;;;-3.57;100.00;99330.53;4894760;29;20083;-82
2021/12/07 04:12:34;;;;;;;44.38;23.70;;;;;;;-3.26;100.00;99382.47;4908265;29;20374;-82
2021/12/07 04:15:19;;;;;;;40.88;22.95;;;;;;;-3.38;100.00;99373.69;4907151;29;20072;-82
2021/12/07 04:18:04;;;;;;;41.63;22.95;;;;;;;-3.50;100.00;99332.41;4908036;29;20044;-82
2021/12/07 04:20:49;;;;;;;46.97;23.92;;;;;;;-3.27;100.00;99375.63;4907418;29;20044;-82
2021/12/07 04:23:35;;;;;;;47.13;24.85;;;;;;;-3.20;100.00;99382.63;4907750;29;20234;-82
2021/12/07 04:26:19;;;;;;;48.33;25.75;;;;;;;-3.46;100.00;99335.91;4908510;29;20509;-82
2021/12/07 04:29:03;;;;;;;50.13;28.45;;;;;;;-3.31;100.00;99367.88;4908054;29;20045;-82
2021/12/07 04:31:49;;;;;;;49.50;27.15;;;;;;;-3.45;100.00;99351.28;4908767;29;20430;-82
2021/12/07 04:34:34;;;;;;;42.60;23.98;;;;;;;-3.21;100.00;99381.75;4908622;29;20049;-82
2021/12/07 04:37:18;;;;;;;49.20;25.50;;;;;;;-3.56;100.00;99334.81;4907110;29;20096;-82
2021/12/07 04:40:04;;;;;;;50.13;26.02;;;;;;;-3.31;100.00;99395.19;4908124;29;20061;-82
2021/12/07 04:42:51;;;;;;;48.35;25.80;;;;;;;-3.51;100.00;99371.63;4908885;29;20055;-82
2021/12/07 05:00:22;;;;;;;40.30;23.58;;;;;;;-3.43;100.00;99351.34;4906818;29;20060;-82
2021/12/07 05:03:11;;;;;;;40.65;21.98;;;;;;;-3.49;100.00;99356.31;4908611;29;20045;-82
2021/12/07 05:05:56;;;;;;;48.85;24.10;;;;;;;-3.41;100.00;99365.03;4908058;29;20052;-82
2021/12/07 05:08:44;;;;;;;43.35;23.25;;;;;;;-3.40;100.00;99383.00;4907699;29;20055;-82
2021/12/07 05:11:50;;;;;;;47.08;24.15;;;;;;;-3.16;100.00;99400.66;4907400;29;20044;-82
2021/12/07 05:14:37;;;;;;;40.60;21.88;;;;;;;-3.44;100.00;99352.19;4907935;29;20080;-82
2021/12/07 05:39:01;;;;;;;44.53;24.08;;;;;;;-3.26;100.00;99434.56;4907148;29;20060;-82
2021/12/07 05:41:45;;;;;;;47.30;25.23;;;;;;;-3.28;100.00;99431.13;4906516;29;20049;-82
2021/12/07 05:44:30;;;;;;;46.85;23.25;;;;;;;-3.47;100.00;99391.38;4906155;29;20044;-82
2021/12/07 05:47:14;;;;;;;44.55;22.48;;;;;;;-3.38;100.00;99398.41;4907644;29;20048;-82
2021/12/07 05:49:59;;;;;;;56.00;24.73;;;;;;;-3.54;100.00;99390.38;4907613;29;20045;-82
2021/12/07 05:52:44;;;;;;;48.75;23.95;;;;;;;-3.36;100.00;99396.75;4908719;29;20068;-82
2021/12/07 05:55:28;;;;;;;54.05;24.88;;;;;;;-3.21;100.00;99424.44;4912280;29;20052;-82
2021/12/07 05:58:14;;;;;;;53.75;25.63;;;;;;;-3.25;100.00;99409.81;4916178;29;20102;-82
2021/12/07 06:00:59;;;;;;;50.30;24.52;;;;;;;-3.12;100.00;99427.19;4915401;29;20041;-82
2021/12/07 06:03:44;;;;;;;53.45;27.08;;;;;;;-3.50;100.00;99375.94;4918712;29;20055;-82
2021/12/07 06:06:28;;;;;;;51.33;23.90;;;;;;;-3.47;100.00;99383.72;4914017;29;20048;-82
2021/12/07 06:09:13;;;;;;;51.13;24.17;;;;;;;-3.08;100.00;99427.34;4910550;29;20111;-82
2021/12/07 06:11:57;;;;;;;42.85;23.02;;;;;;;-3.11;100.00;99436.66;4910363;29;20079;-81
2021/12/07 06:14:44;;;;;;;51.28;26.85;;;;;;;-3.03;100.00;99431.69;4906944;29;20124;-77
2021/12/07 06:17:28;;;;;;;50.28;25.70;;;;;;;-3.17;100.00;99421.13;4902469;29;20049;-78
2021/12/07 06:20:13;;;;;;;47.10;24.48;;;;;;;-3.17;100.00;99431.38;4901736;29;20044;-79
2021/12/07 06:22:58;;;;;;;46.38;25.25;;;;;;;-3.15;100.00;99417.78;4887861;29;20474;-78
2021/12/07 06:25:43;;;;;;;54.05;26.60;;;;;;;-3.11;100.00;99437.50;4901638;29;20116;-78
2021/12/07 06:28:27;;;;;;;48.22;23.10;;;;;;;-3.13;100.00;99440.84;4901794;29;20080;-78
2021/12/07 06:31:12;;;;;;;49.55;25.02;;;;;;;-3.06;100.00;99438.47;4901425;29;20349;-78
2021/12/07 06:33:56;;;;;;;59.58;26.50;;;;;;;-3.06;100.00;99445.28;4901692;29;20047;-78
2021/12/07 06:36:40;;;;;;;55.85;24.23;;;;;;;-2.97;100.00;99448.06;4887441;29;20045;-78
2021/12/07 06:39:24;;;;;;;54.75;26.42;;;;;;;-2.94;100.00;99442.16;4901993;29;20327;-78
2021/12/07 06:42:09;;;;;;;55.15;27.40;;;;;;;-2.96;100.00;99457.47;4902506;29;20431;-78
2021/12/07 06:44:53;;;;;;;70.40;30.05;;;;;;;-2.99;100.00;99449.75;4901619;29;20044;-78
2021/12/07 06:47:38;;;;;;;61.33;28.60;;;;;;;-2.97;100.00;99460.88;4900372;29;20045;-78
2021/12/07 06:50:24;;;;;;;63.70;28.98;;;;;;;-2.97;100.00;99452.34;4900940;29;20295;-78
2021/12/07 06:53:08;;;;;;;66.93;29.58;;;;;;;-2.95;100.00;99461.81;4900781;29;20040;-78
2021/12/07 06:55:53;;;;;;;65.60;31.20;;;;;;;-3.00;100.00;99459.94;4874473;29;20059;-78
2021/12/07 06:58:38;;;;;;;69.70;32.65;;;;;;;-3.00;100.00;99450.56;4898001;29;20055;-80
2021/12/07 07:01:23;;;;;;;75.35;32.60;;;;;;;-2.90;100.00;99454.22;4899412;29;20340;-80
2021/12/07 07:04:08;;;;;;;78.43;34.30;;;;;;;-2.94;100.00;99447.28;4882891;29;20055;-80
2021/12/07 07:06:52;;;;;;;61.42;28.45;;;;;;;-2.86;100.00;99449.22;4893842;29;20403;-80
2021/12/07 07:09:36;;;;;;;58.03;27.85;;;;;;;-2.87;100.00;99467.09;4882745;29;20331;-80
2021/12/07 07:12:20;;;;;;;62.70;27.73;;;;;;;-2.87;100.00;99461.97;4896486;29;20041;-80
2021/12/07 07:15:06;;;;;;;61.22;28.63;;;;;;;-3.00;100.00;99463.38;4894463;29;20128;-80
2021/12/07 07:17:51;;;;;;;60.97;29.05;;;;;;;-3.02;100.00;99459.03;4881860;29;20049;-80
2021/12/07 07:20:36;;;;;;;53.75;25.52;;;;;;;-2.94;100.00;99467.78;4894290;29;20044;-81
2021/12/07 07:23:20;;;;;;;54.17;25.55;;;;;;;-2.93;100.00;99469.50;4882095;29;20041;-80
2021/12/07 07:26:06;;;;;;;55.88;27.15;;;;;;;-2.99;100.00;99466.81;4894397;29;20451;-80
2021/12/07 07:28:50;;;;;;;54.38;27.33;;;;;;;-2.88;100.00;99481.63;4894951;29;20045;-80
2021/12/07 07:31:36;;;;;;;55.83;27.67;;;;;;;-2.93;100.00;99477.19;4895859;29;20186;-80
2021/12/07 07:34:21;;;;;;;53.70;27.05;;;;;;;-2.83;100.00;99477.47;4883579;29;20324;-80
2021/12/07 07:37:06;;;;;;;53.63;27.85;;;;;;;-2.75;100.00;99482.78;4883363;29;20060;-80
2021/12/07 07:39:50;;;;;;;54.58;27.60;;;;;;;-2.76;100.00;99475.91;4883116;29;20478;-80
2021/12/07 07:42:34;;;;;;;62.47;29.70;;;;;;;-2.76;100.00;99481.03;4883420;29;20049;-80
2021/12/07 07:45:44;;;;;;;70.18;33.42;;;;;;;-2.70;100.00;99482.84;4882885;29;20086;-80
2021/12/07 07:48:28;;;;;;;72.78;36.20;;;;;;;-2.71;100.00;99488.81;4895633;29;20075;-80
2021/12/07 07:51:13;;;;;;;66.70;32.22;;;;;;;-2.73;100.00;99481.13;4895524;29;20072;-80
2021/12/07 07:53:59;;;;;;;66.40;30.70;;;;;;;-2.68;100.00;99497.47;4883030;29;20415;-80
2021/12/07 07:56:44;;;;;;;74.97;35.05;;;;;;;-2.65;100.00;99489.84;4895321;29;20339;-80
2021/12/07 07:59:28;;;;;;;66.40;28.50;;;;;;;-2.58;100.00;99490.84;4882868;29;20049;-80
2021/12/07 08:02:13;;;;;;;64.90;32.10;;;;;;;-2.59;100.00;99487.41;4882981;29;20041;-80
2021/12/07 08:04:57;;;;;;;65.15;30.60;;;;;;;-2.39;100.00;99489.56;4895481;29;20045;-80
2021/12/07 08:07:47;;;;;;;64.35;30.20;;;;;;;-2.43;100.00;99487.75;4895157;29;20053;-80
2021/12/07 08:10:31;;;;;;;58.83;29.00;;;;;;;-2.53;100.00;99476.44;4882121;29;20064;-80
2021/12/07 08:13:16;;;;;;;68.82;30.38;;;;;;;-2.33;100.00;99487.13;4882101;29;20049;-80
2021/12/07 08:16:01;;;;;;;67.07;28.35;;;;;;;-2.30;100.00;99488.91;4895478;29;20092;-81
2021/12/07 08:18:47;;;;;;;62.17;28.58;;;;;;;-2.23;100.00;99499.31;4895116;29;20076;-81
2021/12/07 08:21:31;;;;;;;62.28;27.92;;;;;;;-2.24;100.00;99484.75;4895084;29;20041;-81
2021/12/07 08:24:16;;;;;;;73.90;30.58;;;;;;;-2.16;100.00;99496.03;4895541;29;20045;-80
2021/12/07 08:27:01;;;;;;;72.00;31.23;;;;;;;-2.23;100.00;99498.44;4895015;29;20049;-80
2021/12/07 08:29:45;;;;;;;127.32;59.08;;;;;;;-2.13;100.00;99502.94;4895141;29;20132;-80
2021/12/07 08:32:29;;;;;;;247.30;144.82;;;;;;;-2.34;100.00;99495.63;4882607;29;20048;-80
2021/12/07 08:35:15;;;;;;;240.48;124.63;;;;;;;-2.28;100.00;99494.91;4895038;29;20044;-80
2021/12/07 08:37:59;;;;;;;215.70;101.32;;;;;;;-2.20;100.00;99511.34;4882428;29;20064;-80
2021/12/07 08:40:45;;;;;;;398.17;169.52;;;;;;;-2.04;100.00;99500.56;4894878;29;20045;-81
2021/12/07 08:43:31;;;;;;;333.60;158.73;;;;;;;-1.93;100.00;99519.59;4894868;29;20045;-80
2021/12/07 08:46:17;;;;;;;155.98;75.57;;;;;;;-1.81;100.00;99523.28;4897068;29;20053;-80
2021/12/07 08:49:03;;;;;;;103.28;47.10;;;;;;;-1.88;100.00;99525.72;4895002;29;20077;-80
2021/12/07 08:51:50;;;;;;;90.32;46.80;;;;;;;-2.00;100.00;99522.88;4881740;29;20423;-80
2021/12/07 08:59:38;;;;;;;75.65;37.17;;;;;;;-1.75;100.00;99534.53;4881737;29;20355;-81
2021/12/07 09:11:04;;;;;;;65.15;32.63;;;;;;;-1.26;100.00;99543.16;5070583;28;20397;-81
2021/12/07 09:13:49;;;;;;;63.35;30.65;;;;;;;-1.34;100.00;99542.16;5070563;28;20121;-81
2021/12/07 09:16:33;;;;;;;66.30;31.63;;;;;;;-1.33;100.00;99536.19;5069395;28;20036;-81
2021/12/07 09:19:18;;;;;;;63.50;31.33;;;;;;;-1.21;100.00;99531.25;5069630;28;20044;-81
2021/12/07 09:22:03;;;;;;;61.92;29.63;;;;;;;-1.26;100.00;99532.03;5069565;28;20434;-81
2021/12/07 09:24:48;;;;;;;61.00;28.55;;;;;;;-1.22;100.00;99541.53;5069651;28;20037;-81
2021/12/07 09:27:32;;;;;;;62.60;29.88;;;;;;;-1.01;100.00;99533.31;5054900;28;20408;-81
2021/12/07 09:30:19;;;;;;;64.40;29.25;;;;;;;-0.99;100.00;99529.06;5069513;28;20044;-81
2021/12/07 09:33:03;;;;;;;61.00;28.58;;;;;;;-1.12;100.00;99529.69;5070241;28;20418;-81
2021/12/07 09:35:48;;;;;;;73.00;33.53;;;;;;;-1.00;100.00;99525.63;5068932;28;20061;-81
2021/12/07 09:38:33;;;;;;;62.65;29.73;;;;;;;-0.91;100.00;99517.22;5070043;28;20065;-81
2021/12/07 09:41:18;;;;;;;64.45;30.98;;;;;;;-0.89;100.00;99502.66;5059069;28;20048;-81
2021/12/07 09:44:04;;;;;;;63.58;30.88;;;;;;;-1.11;100.00;99510.84;5071748;28;20052;-81
2021/12/07 09:46:49;;;;;;;63.15;29.92;;;;;;;-0.77;100.00;99508.00;5069190;28;20049;-80
2021/12/07 09:49:33;;;;;;;64.70;30.95;;;;;;;-0.56;100.00;99506.59;5069666;28;20049;-80
2021/12/07 09:52:18;;;;;;;63.67;30.58;;;;;;;-0.53;100.00;99507.50;5068974;28;20052;-81
2021/12/07 09:55:03;;;;;;;61.78;30.10;;;;;;;-0.57;100.00;99492.00;5069533;28;20447;-80
2021/12/07 09:57:48;;;;;;;61.15;31.08;;;;;;;-0.64;100.00;99503.06;5068747;28;20415;-80
2021/12/07 10:00:35;;;;;;;61.17;32.13;;;;;;;-0.89;100.00;99497.50;5069020;28;20045;-80
2021/12/07 10:03:21;;;;;;;58.72;30.60;;;;;;;-0.56;100.00;99481.72;5068820;28;20094;-81
2021/12/07 10:06:06;;;;;;;61.90;30.33;;;;;;;-0.85;100.00;99486.44;5069693;28;20032;-81
2021/12/07 10:08:51;;;;;;;60.92;31.17;;;;;;;-0.93;100.00;99497.44;5068273;28;20056;-81
2021/12/07 10:11:35;;;;;;;60.35;29.90;;;;;;;-1.07;100.00;99494.63;5057987;28;20391;-81
2021/12/07 10:14:20;;;;;;;59.97;30.58;;;;;;;-1.11;100.00;99472.28;5054807;28;20061;-81
2021/12/07 10:17:06;;;;;;;66.20;33.40;;;;;;;-1.22;100.00;99498.69;5055851;28;20041;-81
2021/12/07 10:19:50;;;;;;;108.25;46.08;;;;;;;-1.09;100.00;99504.91;5054970;28;20041;-81
2021/12/07 10:22:35;;;;;;;79.68;37.00;;;;;;;-0.91;100.00;99512.06;5054834;28;20133;-81
2021/12/07 10:25:27;;;;;;;257.25;95.95;;;;;;;-1.25;100.00;99500.34;5038926;28;20102;-81
2021/12/07 10:28:27;;;;;;;260.02;94.28;;;;;;;-1.22;100.00;99519.25;5053213;28;20044;-81
2021/12/07 10:31:43;;;;;;;153.80;62.80;;;;;;;-0.76;100.00;99520.00;5053039;28;20122;-81
2021/12/07 10:34:37;;;;;;;64.70;32.25;;;;;;;-0.99;100.00;99493.06;5054145;28;20033;-81
2021/12/07 10:37:22;;;;;;;100.40;48.88;;;;;;;-0.87;100.00;99493.28;5053512;28;20041;-81
2021/12/07 10:40:12;;;;;;;125.72;59.92;;;;;;;-0.52;100.00;99477.47;5054375;28;20465;-79
2021/12/07 10:42:56;;;;;;;97.28;46.13;;;;;;;-0.43;100.00;99480.19;5057092;28;20049;-80
2021/12/07 10:45:40;;;;;;;67.35;32.33;;;;;;;-0.59;100.00;99476.53;5057341;28;20049;-79
2021/12/07 10:48:25;;;;;;;80.50;35.35;;;;;;;-0.47;100.00;99483.56;5056864;28;20044;-80
2021/12/07 10:51:12;;;;;;;100.72;43.70;;;;;;;-0.91;100.00;99473.50;5056441;28;20037;-81
2021/12/07 10:53:57;;;;;;;457.88;156.50;;;;;;;-0.83;100.00;99484.75;5055063;28;20041;-81
2021/12/07 10:56:41;;;;;;;66.53;34.25;;;;;;;-0.76;100.00;99488.28;5055352;28;20374;-81
2021/12/07 10:59:25;;;;;;;527.00;175.98;;;;;;;-0.77;100.00;99479.72;5054816;28;20353;-81
2021/12/07 11:02:16;;;;;;;69.70;35.28;;;;;;;-0.96;100.00;99503.41;5055207;28;20049;-81
2021/12/07 11:05:02;;;;;;;53.50;27.63;;;;;;;-0.93;100.00;99489.75;5054654;28;20053;-81
2021/12/07 11:07:48;;;;;;;56.63;29.90;;;;;;;-1.04;100.00;99492.13;5055016;28;20045;-81
2021/12/07 11:10:39;;;;;;;49.95;29.63;;;;;;;-0.82;100.00;99490.75;5053968;28;20049;-81
2021/12/07 11:13:33;;;;;;;52.97;28.42;;;;;;;-0.79;100.00;99480.53;5053886;28;20049;-81
2021/12/07 11:16:18;;;;;;;52.08;28.58;;;;;;;-0.68;100.00;99497.00;5040794;28;20041;-81
2021/12/07 11:19:20;;;;;;;49.83;25.77;;;;;;;-0.66;100.00;99502.16;5055442;28;20445;-81
2021/12/07 11:22:04;;;;;;;54.15;27.38;;;;;;;-0.63;100.00;99497.06;5053332;28;20052;-81
2021/12/07 11:24:51;;;;;;;93.70;42.20;;;;;;;-0.60;100.00;99510.81;5054013;28;20037;-80
2021/12/07 11:30:39;;;;;;;51.72;26.75;;;;;;;-0.52;100.00;99469.75;5054382;28;20045;-80
2021/12/07 11:33:24;;;;;;;52.42;28.08;;;;;;;-0.47;100.00;99509.31;5055443;28;20053;-81
2021/12/07 11:36:20;;;;;;;46.70;26.20;;;;;;;-0.38;100.00;99491.44;5054891;28;20039;-80
2021/12/07 11:39:36;;;;;;;52.10;29.10;;;;;;;-0.17;100.00;99516.56;5053994;28;20410;-80
2021/12/07 11:42:36;;;;;;;44.92;24.95;;;;;;;-0.04;100.00;99482.41;5053470;28;20059;-80
2021/12/07 11:45:33;;;;;;;68.15;39.00;;;;;;;-0.41;100.00;99511.09;5057571;28;20052;-80
2021/12/07 11:48:17;;;;;;;65.28;35.47;;;;;;;-0.50;100.00;99473.22;5054104;28;20346;-81
2021/12/07 11:51:02;;;;;;;73.63;34.17;;;;;;;-0.32;100.00;99512.09;5054716;28;20041;-80
2021/12/07 11:53:48;;;;;;;50.85;27.55;;;;;;;-0.47;100.00;99473.28;5054477;28;20049;-80
2021/12/07 11:56:34;;;;;;;135.30;62.97;;;;;;;-0.48;100.00;99458.69;5053719;28;20044;-80
2021/12/07 11:59:19;;;;;;;69.88;32.35;;;;;;;-0.33;100.00;99476.88;5054580;28;20045;-80
2021/12/07 12:02:03;;;;;;;52.42;28.75;;;;;;;-0.41;100.00;99496.53;5053725;28;20044;-80
2021/12/07 12:04:48;;;;;;;58.45;33.72;;;;;;;-0.42;100.00;99478.47;5125971;27;20056;-80
2021/12/07 12:07:33;;;;;;;59.70;30.45;;;;;;;-0.03;100.00;99491.91;5054254;28;20037;-80
2021/12/07 12:10:18;;;;;;;50.53;28.02;;;;;;;-0.15;100.00;99506.31;5053651;28;20049;-80
2021/12/07 12:13:17;;;;;;;65.40;33.45;;;;;;;-0.53;100.00;99504.06;5052980;28;20037;-80
2021/12/07 12:16:25;;;;;;;102.47;50.47;;;;;;;-0.27;100.00;99505.28;5053789;28;20076;-81
2021/12/07 12:19:28;;;;;;;85.00;36.88;;;;;;;-0.34;100.00;99505.19;5053684;28;20097;-80
2021/12/07 12:22:35;;;;;;;89.07;39.53;;;;;;;-0.10;100.00;99508.13;5052730;28;20068;-80
2021/12/07 12:25:22;;;;;;;49.83;26.95;;;;;;;-0.07;100.00;99504.69;5053408;28;20041;-81
2021/12/07 12:28:06;;;;;;;54.60;31.10;;;;;;;-0.36;100.00;99518.03;5053194;28;20049;-81
2021/12/07 12:30:51;;;;;;;59.90;32.33;;;;;;;-0.80;100.00;99514.81;5050303;28;20442;-80
2021/12/07 12:33:53;;;;;;;53.20;27.73;;;;;;;-0.57;100.00;99507.44;5053238;28;20049;-80
2021/12/07 12:36:38;;;;;;;50.03;24.88;;;;;;;-0.41;100.00;99505.97;5051944;28;20119;-80
2021/12/07 12:39:47;;;;;;;41.88;25.10;;;;;;;-0.92;100.00;99512.88;5050661;28;20105;-80
2021/12/07 12:42:44;;;;;;;176.68;50.20;;;;;;;-0.80;100.00;99507.09;5055764;28;20036;-79
2021/12/07 12:45:38;;;;;;;177.05;60.95;;;;;;;-0.90;100.00;99524.06;5038317;28;20036;-79
2021/12/07 12:48:23;;;;;;;61.20;32.30;;;;;;;-0.98;100.00;99523.06;5052189;28;20456;-79
2021/12/07 12:51:09;;;;;;;47.38;26.10;;;;;;;-1.09;100.00;99532.31;5051513;28;20040;-79
2021/12/07 12:53:54;;;;;;;88.85;47.00;;;;;;;-1.00;100.00;99524.78;5051835;28;20041;-79
2021/12/07 12:56:39;;;;;;;87.45;45.03;;;;;;;-0.91;100.00;99530.06;5051601;28;20113;-79
2021/12/07 12:59:23;;;;;;;140.13;61.50;;;;;;;-1.00;100.00;99520.50;5051363;28;20041;-79
2021/12/07 13:02:09;;;;;;;121.13;62.22;;;;;;;-1.18;100.00;99530.44;5051687;28;20045;-79
2021/12/07 13:05:02;;;;;;;119.10;85.43;;;;;;;-1.32;100.00;99543.06;5052382;28;20252;-79
2021/12/07 13:07:47;;;;;;;124.75;52.60;;;;;;;-1.53;100.00;99535.78;5051994;28;20043;-79
2021/12/07 13:10:32;;;;;;;73.78;34.20;;;;;;;-1.22;100.00;99557.81;5052786;28;20060;-79
2021/12/07 13:13:47;;;;;;;117.85;78.22;;;;;;;-1.21;100.00;99544.09;5053191;28;20080;-79
2021/12/07 13:16:33;;;;;;;136.48;69.93;;;;;;;-1.28;100.00;99549.97;5046456;28;20057;-79
2021/12/07 13:19:18;;;;;;;178.90;64.32;;;;;;;-1.56;100.00;99551.19;5052075;28;20060;-79
2021/12/07 13:22:06;;;;;;;162.60;55.05;;;;;;;-1.58;100.00;99557.13;5052816;28;20191;-79
2021/12/07 13:24:56;;;;;;;328.38;98.93;;;;;;;-1.68;100.00;99556.94;5038157;28;20045;-79
2021/12/07 13:28:01;;;;;;;81.07;38.55;;;;;;;-1.62;100.00;99561.31;5052652;28;20049;-79
2021/12/07 13:30:48;;;;;;;54.75;28.08;;;;;;;-1.52;100.00;99552.09;5053151;28;20451;-79
2021/12/07 13:33:49;;;;;;;55.50;28.55;;;;;;;-1.37;100.00;99551.50;5052682;28;20323;-79
2021/12/07 13:36:45;;;;;;;46.90;27.02;;;;;;;-1.63;100.00;99554.44;5038114;28;20041;-79
2021/12/07 13:39:31;;;;;;;83.88;38.05;;;;;;;-1.75;100.00;99549.09;5052772;28;20094;-79
2021/12/07 13:42:18;;;;;;;53.63;28.73;;;;;;;-1.59;100.00;99556.25;5052080;28;20045;-79
2021/12/07 13:45:09;;;;;;;126.10;66.07;;;;;;;-1.80;100.00;99554.09;5056212;28;20037;-79
2021/12/07 13:47:53;;;;;;;146.02;62.15;;;;;;;-1.78;100.00;99552.44;5056046;28;20037;-79
2021/12/07 13:50:38;;;;;;;68.53;34.53;;;;;;;-1.83;100.00;99559.16;5041763;28;20060;-79
2021/12/07 13:53:22;;;;;;;46.70;26.23;;;;;;;-2.01;100.00;99558.81;5055688;28;20045;-79
2021/12/07 13:56:08;;;;;;;69.35;37.05;;;;;;;-1.93;100.00;99562.38;5055803;28;20041;-79
2021/12/07 13:58:57;;;;;;;56.60;31.00;;;;;;;-2.04;100.00;99562.16;5055657;28;20048;-79
2021/12/07 14:01:50;;;;;;;65.82;33.70;;;;;;;-1.97;100.00;99576.00;5054982;28;20045;-79
2021/12/07 14:04:35;;;;;;;91.40;42.20;;;;;;;-2.16;100.00;99574.72;5055024;28;20072;-79
2021/12/07 14:07:19;;;;;;;87.07;42.10;;;;;;;-2.19;100.00;99574.66;5041022;28;20041;-79
2021/12/07 14:10:11;;;;;;;54.60;28.60;;;;;;;-2.17;100.00;99584.13;5055703;28;20140;-79
2021/12/07 14:12:58;;;;;;;59.53;32.42;;;;;;;-2.38;100.00;99571.66;5055438;28;20105;-79
2021/12/07 14:15:44;;;;;;;72.38;36.58;;;;;;;-2.37;100.00;99586.25;5055386;28;20429;-79
2021/12/07 14:18:29;;;;;;;68.22;35.50;;;;;;;-2.22;100.00;99600.25;5055540;28;20044;-79
2021/12/07 14:21:13;;;;;;;70.15;37.97;;;;;;;-2.18;100.00;99600.38;5055265;28;20051;-79
2021/12/07 14:24:05;;;;;;;76.57;39.45;;;;;;;-2.28;100.00;99598.41;5055246;28;20041;-79
2021/12/07 14:26:50;;;;;;;60.63;33.35;;;;;;;-2.29;100.00;99601.81;5054701;28;20044;-79
2021/12/07 14:29:35;;;;;;;62.70;32.45;;;;;;;-2.39;100.00;99599.88;5055349;28;20445;-79
2021/12/07 14:32:19;;;;;;;61.92;32.92;;;;;;;-2.48;100.00;99612.47;5041147;28;20068;-78
2021/12/07 14:35:04;;;;;;;56.25;32.38;;;;;;;-2.54;100.00;99622.56;5040414;28;20052;-79